sensor_id;sensor_type;location;lat;lon;timestamp;P1;durP1;ratioP1;P2;durP2;ratioP2
20411;SDS011;10365;52.578;8.138;2023-10-19T00:00:04;28.35;;;18.80;;
20411;SDS011;10365;52.578;8.138;2023-10-19T00:02:48;34.83;;;18.38;;
20411;SDS011;10365;52.578;8.138;2023-10-19T00:05:16;27.17;;;17.63;;
20411;SDS011;10365;52.578;8.138;2023-10-19T00:07:42;30.27;;;18.83;;
20411;SDS011;10365;52.578;8.138;2023-10-19T00:10:07;34.20;;;19.88;;
20411;SDS011;10365;52.578;8.138;2023-10-19T00:12:33;34.00;;;19.58;;
20411;SDS011;10365;52.578;8.138;2023-10-19T00:14:58;31.77;;;19.73;;
20411;SDS011;10365;52.578;8.138;2023-10-19T00:17:24;30.45;;;18.63;;
20411;SDS011;10365;52.578;8.138;2023-10-19T00:19:52;33.10;;;20.25;;
20411;SDS011;10365;52.578;8.138;2023-10-19T00:22:43;38.90;;;19.52;;
20411;SDS011;10365;52.578;8.138;2023-10-19T00:25:09;30.85;;;20.20;;
20411;SDS011;10365;52.578;8.138;2023-10-19T00:27:38;34.03;;;20.25;;
20411;SDS011;10365;52.578;8.138;2023-10-19T00:30:04;35.22;;;21.60;;
20411;SDS011;10365;52.578;8.138;2023-10-19T00:32:33;32.22;;;21.00;;
20411;SDS011;10365;52.578;8.138;2023-10-19T00:35:04;31.85;;;19.77;;
20411;SDS011;10365;52.578;8.138;2023-10-19T00:37:35;32.33;;;21.50;;
20411;SDS011;10365;52.578;8.138;2023-10-19T00:40:07;33.60;;;21.25;;
20411;SDS011;10365;52.578;8.138;2023-10-19T00:42:41;35.10;;;22.00;;
20411;SDS011;10365;52.578;8.138;2023-10-19T00:45:18;34.28;;;21.55;;
20411;SDS011;10365;52.578;8.138;2023-10-19T00:47:50;43.45;;;22.65;;
20411;SDS011;10365;52.578;8.138;2023-10-19T00:50:18;36.75;;;21.45;;
20411;SDS011;10365;52.578;8.138;2023-10-19T00:52:47;39.83;;;23.27;;
20411;SDS011;10365;52.578;8.138;2023-10-19T00:55:15;34.30;;;22.13;;
20411;SDS011;10365;52.578;8.138;2023-10-19T00:57:40;40.80;;;24.27;;
20411;SDS011;10365;52.578;8.138;2023-10-19T01:00:08;38.70;;;22.88;;
20411;SDS011;10365;52.578;8.138;2023-10-19T01:02:37;37.25;;;22.85;;
20411;SDS011;10365;52.578;8.138;2023-10-19T01:05:08;42.63;;;24.05;;
20411;SDS011;10365;52.578;8.138;2023-10-19T01:07:38;43.90;;;23.60;;
20411;SDS011;10365;52.578;8.138;2023-10-19T01:10:04;40.42;;;24.02;;
20411;SDS011;10365;52.578;8.138;2023-10-19T01:12:46;40.58;;;23.85;;
20411;SDS011;10365;52.578;8.138;2023-10-19T01:15:12;39.80;;;24.33;;
20411;SDS011;10365;52.578;8.138;2023-10-19T01:17:53;37.92;;;24.63;;
20411;SDS011;10365;52.578;8.138;2023-10-19T01:20:20;37.42;;;24.50;;
20411;SDS011;10365;52.578;8.138;2023-10-19T01:22:52;44.28;;;24.50;;
20411;SDS011;10365;52.578;8.138;2023-10-19T01:25:19;42.72;;;24.90;;
20411;SDS011;10365;52.578;8.138;2023-10-19T01:27:45;41.85;;;25.55;;
20411;SDS011;10365;52.578;8.138;2023-10-19T01:30:12;42.40;;;25.67;;
20411;SDS011;10365;52.578;8.138;2023-10-19T01:32:39;50.95;;;25.58;;
20411;SDS011;10365;52.578;8.138;2023-10-19T01:35:07;43.63;;;26.17;;
20411;SDS011;10365;52.578;8.138;2023-10-19T01:37:32;45.58;;;25.55;;
20411;SDS011;10365;52.578;8.138;2023-10-19T01:40:03;44.92;;;26.08;;
20411;SDS011;10365;52.578;8.138;2023-10-19T01:42:29;40.70;;;25.10;;
20411;SDS011;10365;52.578;8.138;2023-10-19T01:44:55;43.30;;;27.00;;
20411;SDS011;10365;52.578;8.138;2023-10-19T01:47:21;45.35;;;25.65;;
20411;SDS011;10365;52.578;8.138;2023-10-19T01:49:47;45.33;;;27.50;;
20411;SDS011;10365;52.578;8.138;2023-10-19T01:52:17;48.80;;;26.60;;
20411;SDS011;10365;52.578;8.138;2023-10-19T01:54:42;47.38;;;27.67;;
20411;SDS011;10365;52.578;8.138;2023-10-19T01:57:09;50.10;;;27.92;;
20411;SDS011;10365;52.578;8.138;2023-10-19T01:59:35;49.95;;;27.08;;
20411;SDS011;10365;52.578;8.138;2023-10-19T02:02:00;52.53;;;27.65;;
20411;SDS011;10365;52.578;8.138;2023-10-19T02:04:27;45.05;;;27.05;;
20411;SDS011;10365;52.578;8.138;2023-10-19T02:06:52;48.58;;;28.67;;
20411;SDS011;10365;52.578;8.138;2023-10-19T02:09:18;50.67;;;29.05;;
20411;SDS011;10365;52.578;8.138;2023-10-19T02:11:49;52.00;;;28.80;;
20411;SDS011;10365;52.578;8.138;2023-10-19T02:14:16;48.72;;;27.02;;
20411;SDS011;10365;52.578;8.138;2023-10-19T02:16:44;47.28;;;28.40;;
20411;SDS011;10365;52.578;8.138;2023-10-19T02:19:12;51.90;;;28.05;;
20411;SDS011;10365;52.578;8.138;2023-10-19T02:21:37;42.45;;;26.40;;
20411;SDS011;10365;52.578;8.138;2023-10-19T02:24:09;44.25;;;26.50;;
20411;SDS011;10365;52.578;8.138;2023-10-19T02:26:34;51.63;;;28.42;;
20411;SDS011;10365;52.578;8.138;2023-10-19T02:29:02;45.80;;;27.27;;
20411;SDS011;10365;52.578;8.138;2023-10-19T02:31:33;44.35;;;25.42;;
20411;SDS011;10365;52.578;8.138;2023-10-19T02:33:58;44.00;;;25.27;;
20411;SDS011;10365;52.578;8.138;2023-10-19T02:36:24;41.17;;;24.75;;
20411;SDS011;10365;52.578;8.138;2023-10-19T02:38:54;42.65;;;24.45;;
20411;SDS011;10365;52.578;8.138;2023-10-19T02:41:19;41.50;;;24.77;;
20411;SDS011;10365;52.578;8.138;2023-10-19T02:43:46;41.33;;;23.05;;
20411;SDS011;10365;52.578;8.138;2023-10-19T02:46:13;37.17;;;21.58;;
20411;SDS011;10365;52.578;8.138;2023-10-19T02:48:38;34.90;;;21.63;;
20411;SDS011;10365;52.578;8.138;2023-10-19T02:51:04;33.50;;;20.42;;
20411;SDS011;10365;52.578;8.138;2023-10-19T02:53:36;32.22;;;20.20;;
20411;SDS011;10365;52.578;8.138;2023-10-19T02:56:12;28.33;;;18.95;;
20411;SDS011;10365;52.578;8.138;2023-10-19T02:58:40;31.27;;;18.80;;
20411;SDS011;10365;52.578;8.138;2023-10-19T03:01:12;30.25;;;18.85;;
20411;SDS011;10365;52.578;8.138;2023-10-19T03:03:37;30.92;;;19.25;;
20411;SDS011;10365;52.578;8.138;2023-10-19T03:06:02;27.50;;;17.52;;
20411;SDS011;10365;52.578;8.138;2023-10-19T03:08:29;35.78;;;19.08;;
20411;SDS011;10365;52.578;8.138;2023-10-19T03:10:56;25.25;;;16.20;;
20411;SDS011;10365;52.578;8.138;2023-10-19T03:13:32;29.20;;;17.45;;
20411;SDS011;10365;52.578;8.138;2023-10-19T03:15:58;25.83;;;16.23;;
20411;SDS011;10365;52.578;8.138;2023-10-19T03:18:25;28.85;;;17.35;;
20411;SDS011;10365;52.578;8.138;2023-10-19T03:20:51;29.15;;;17.30;;
20411;SDS011;10365;52.578;8.138;2023-10-19T03:23:16;25.13;;;15.68;;
20411;SDS011;10365;52.578;8.138;2023-10-19T03:25:42;25.50;;;16.42;;
20411;SDS011;10365;52.578;8.138;2023-10-19T03:28:26;28.98;;;16.70;;
20411;SDS011;10365;52.578;8.138;2023-10-19T03:30:51;27.02;;;17.02;;
20411;SDS011;10365;52.578;8.138;2023-10-19T03:33:16;27.90;;;16.75;;
20411;SDS011;10365;52.578;8.138;2023-10-19T03:35:43;25.73;;;15.73;;
20411;SDS011;10365;52.578;8.138;2023-10-19T03:38:08;28.98;;;16.25;;
20411;SDS011;10365;52.578;8.138;2023-10-19T03:40:41;29.67;;;17.88;;
20411;SDS011;10365;52.578;8.138;2023-10-19T03:43:06;29.63;;;17.30;;
20411;SDS011;10365;52.578;8.138;2023-10-19T03:45:42;28.02;;;16.95;;
20411;SDS011;10365;52.578;8.138;2023-10-19T03:48:14;28.02;;;16.70;;
20411;SDS011;10365;52.578;8.138;2023-10-19T03:50:43;24.98;;;17.17;;
20411;SDS011;10365;52.578;8.138;2023-10-19T03:53:08;26.02;;;16.27;;
20411;SDS011;10365;52.578;8.138;2023-10-19T03:55:37;24.98;;;17.00;;
20411;SDS011;10365;52.578;8.138;2023-10-19T03:58:03;26.92;;;16.85;;
20411;SDS011;10365;52.578;8.138;2023-10-19T04:00:29;26.85;;;15.63;;
20411;SDS011;10365;52.578;8.138;2023-10-19T04:02:58;30.17;;;17.23;;
20411;SDS011;10365;52.578;8.138;2023-10-19T04:05:23;24.50;;;15.93;;
20411;SDS011;10365;52.578;8.138;2023-10-19T04:07:50;24.38;;;15.50;;
20411;SDS011;10365;52.578;8.138;2023-10-19T04:10:19;28.27;;;17.42;;
20411;SDS011;10365;52.578;8.138;2023-10-19T04:13:00;28.75;;;15.80;;
20411;SDS011;10365;52.578;8.138;2023-10-19T04:15:26;26.75;;;16.13;;
20411;SDS011;10365;52.578;8.138;2023-10-19T04:17:54;28.20;;;17.20;;
20411;SDS011;10365;52.578;8.138;2023-10-19T04:20:23;25.65;;;16.00;;
20411;SDS011;10365;52.578;8.138;2023-10-19T04:22:55;29.73;;;18.00;;
20411;SDS011;10365;52.578;8.138;2023-10-19T04:25:22;29.85;;;17.77;;
20411;SDS011;10365;52.578;8.138;2023-10-19T04:27:51;32.80;;;17.83;;
20411;SDS011;10365;52.578;8.138;2023-10-19T04:30:17;30.25;;;17.35;;
20411;SDS011;10365;52.578;8.138;2023-10-19T04:32:43;29.75;;;18.27;;
20411;SDS011;10365;52.578;8.138;2023-10-19T04:35:09;36.05;;;18.33;;
20411;SDS011;10365;52.578;8.138;2023-10-19T04:37:34;30.83;;;18.75;;
20411;SDS011;10365;52.578;8.138;2023-10-19T04:40:00;33.70;;;18.25;;
20411;SDS011;10365;52.578;8.138;2023-10-19T04:42:26;31.77;;;18.65;;
20411;SDS011;10365;52.578;8.138;2023-10-19T04:44:54;31.33;;;18.13;;
20411;SDS011;10365;52.578;8.138;2023-10-19T04:47:20;32.95;;;18.52;;
20411;SDS011;10365;52.578;8.138;2023-10-19T04:49:47;29.52;;;16.83;;
20411;SDS011;10365;52.578;8.138;2023-10-19T04:52:12;31.02;;;18.00;;
20411;SDS011;10365;52.578;8.138;2023-10-19T04:54:37;36.40;;;20.38;;
20411;SDS011;10365;52.578;8.138;2023-10-19T04:57:03;38.47;;;19.15;;
20411;SDS011;10365;52.578;8.138;2023-10-19T04:59:28;31.65;;;19.38;;
20411;SDS011;10365;52.578;8.138;2023-10-19T05:01:58;31.58;;;19.05;;
20411;SDS011;10365;52.578;8.138;2023-10-19T05:04:23;33.72;;;19.50;;
20411;SDS011;10365;52.578;8.138;2023-10-19T05:06:49;33.67;;;19.33;;
20411;SDS011;10365;52.578;8.138;2023-10-19T05:09:14;34.88;;;19.70;;
20411;SDS011;10365;52.578;8.138;2023-10-19T05:11:40;41.85;;;20.33;;
20411;SDS011;10365;52.578;8.138;2023-10-19T05:14:05;33.78;;;20.88;;
20411;SDS011;10365;52.578;8.138;2023-10-19T05:16:31;33.30;;;19.70;;
20411;SDS011;10365;52.578;8.138;2023-10-19T05:18:56;35.63;;;20.05;;
20411;SDS011;10365;52.578;8.138;2023-10-19T05:21:21;33.13;;;19.55;;
20411;SDS011;10365;52.578;8.138;2023-10-19T05:23:47;32.47;;;19.70;;
20411;SDS011;10365;52.578;8.138;2023-10-19T05:26:12;34.47;;;19.50;;
20411;SDS011;10365;52.578;8.138;2023-10-19T05:28:39;30.92;;;18.65;;
20411;SDS011;10365;52.578;8.138;2023-10-19T05:31:05;31.90;;;19.65;;
20411;SDS011;10365;52.578;8.138;2023-10-19T05:33:30;29.70;;;19.10;;
20411;SDS011;10365;52.578;8.138;2023-10-19T05:35:55;32.15;;;19.35;;
20411;SDS011;10365;52.578;8.138;2023-10-19T05:38:21;28.48;;;17.35;;
20411;SDS011;10365;52.578;8.138;2023-10-19T05:40:47;27.58;;;16.77;;
20411;SDS011;10365;52.578;8.138;2023-10-19T05:43:15;29.00;;;16.73;;
20411;SDS011;10365;52.578;8.138;2023-10-19T05:45:40;30.33;;;16.60;;
20411;SDS011;10365;52.578;8.138;2023-10-19T05:48:06;29.55;;;16.40;;
20411;SDS011;10365;52.578;8.138;2023-10-19T05:50:32;27.70;;;16.92;;
20411;SDS011;10365;52.578;8.138;2023-10-19T05:52:57;28.98;;;16.90;;
20411;SDS011;10365;52.578;8.138;2023-10-19T05:55:22;31.17;;;17.10;;
20411;SDS011;10365;52.578;8.138;2023-10-19T05:57:48;28.65;;;16.27;;
20411;SDS011;10365;52.578;8.138;2023-10-19T06:00:14;31.33;;;17.48;;
20411;SDS011;10365;52.578;8.138;2023-10-19T06:02:46;29.45;;;17.25;;
20411;SDS011;10365;52.578;8.138;2023-10-19T06:05:12;28.95;;;17.05;;
20411;SDS011;10365;52.578;8.138;2023-10-19T06:07:40;27.63;;;15.70;;
20411;SDS011;10365;52.578;8.138;2023-10-19T06:10:06;28.02;;;15.57;;
20411;SDS011;10365;52.578;8.138;2023-10-19T06:12:31;27.30;;;16.38;;
20411;SDS011;10365;52.578;8.138;2023-10-19T06:14:57;26.42;;;16.13;;
20411;SDS011;10365;52.578;8.138;2023-10-19T06:17:22;27.92;;;15.30;;
20411;SDS011;10365;52.578;8.138;2023-10-19T06:19:48;22.13;;;15.02;;
20411;SDS011;10365;52.578;8.138;2023-10-19T06:22:14;24.10;;;15.07;;
20411;SDS011;10365;52.578;8.138;2023-10-19T06:24:41;24.42;;;14.70;;
20411;SDS011;10365;52.578;8.138;2023-10-19T06:27:06;21.20;;;13.43;;
20411;SDS011;10365;52.578;8.138;2023-10-19T06:29:32;21.98;;;13.02;;
20411;SDS011;10365;52.578;8.138;2023-10-19T06:31:57;18.67;;;12.23;;
20411;SDS011;10365;52.578;8.138;2023-10-19T06:34:24;21.13;;;13.30;;
20411;SDS011;10365;52.578;8.138;2023-10-19T06:36:50;18.83;;;13.18;;
20411;SDS011;10365;52.578;8.138;2023-10-19T06:39:16;20.48;;;13.07;;
20411;SDS011;10365;52.578;8.138;2023-10-19T06:41:42;21.25;;;14.00;;
20411;SDS011;10365;52.578;8.138;2023-10-19T06:44:08;23.20;;;14.48;;
20411;SDS011;10365;52.578;8.138;2023-10-19T06:46:33;22.85;;;14.10;;
20411;SDS011;10365;52.578;8.138;2023-10-19T06:49:01;24.48;;;14.05;;
20411;SDS011;10365;52.578;8.138;2023-10-19T06:51:26;23.17;;;14.50;;
20411;SDS011;10365;52.578;8.138;2023-10-19T06:53:52;21.80;;;13.85;;
20411;SDS011;10365;52.578;8.138;2023-10-19T06:56:17;22.42;;;14.32;;
20411;SDS011;10365;52.578;8.138;2023-10-19T06:58:44;31.25;;;15.35;;
20411;SDS011;10365;52.578;8.138;2023-10-19T07:01:10;27.80;;;15.65;;
20411;SDS011;10365;52.578;8.138;2023-10-19T07:03:36;24.98;;;15.07;;
20411;SDS011;10365;52.578;8.138;2023-10-19T07:06:01;23.23;;;14.48;;
20411;SDS011;10365;52.578;8.138;2023-10-19T07:08:28;28.90;;;14.65;;
20411;SDS011;10365;52.578;8.138;2023-10-19T07:10:53;23.88;;;15.02;;
20411;SDS011;10365;52.578;8.138;2023-10-19T07:13:19;25.85;;;14.85;;
20411;SDS011;10365;52.578;8.138;2023-10-19T07:15:46;22.88;;;14.45;;
20411;SDS011;10365;52.578;8.138;2023-10-19T07:18:12;32.38;;;14.57;;
20411;SDS011;10365;52.578;8.138;2023-10-19T07:20:37;25.17;;;14.35;;
20411;SDS011;10365;52.578;8.138;2023-10-19T07:23:04;40.60;;;15.32;;
20411;SDS011;10365;52.578;8.138;2023-10-19T07:25:35;25.23;;;14.65;;
20411;SDS011;10365;52.578;8.138;2023-10-19T07:28:08;25.70;;;14.18;;
20411;SDS011;10365;52.578;8.138;2023-10-19T07:30:34;22.88;;;13.77;;
20411;SDS011;10365;52.578;8.138;2023-10-19T07:33:00;26.58;;;14.75;;
20411;SDS011;10365;52.578;8.138;2023-10-19T07:35:26;19.75;;;14.40;;
20411;SDS011;10365;52.578;8.138;2023-10-19T07:37:52;21.05;;;13.45;;
20411;SDS011;10365;52.578;8.138;2023-10-19T07:40:17;22.65;;;14.30;;
20411;SDS011;10365;52.578;8.138;2023-10-19T07:42:46;24.55;;;14.02;;
20411;SDS011;10365;52.578;8.138;2023-10-19T07:45:13;21.55;;;13.43;;
20411;SDS011;10365;52.578;8.138;2023-10-19T07:47:39;23.48;;;15.07;;
20411;SDS011;10365;52.578;8.138;2023-10-19T07:50:07;28.60;;;13.60;;
20411;SDS011;10365;52.578;8.138;2023-10-19T07:52:37;21.13;;;13.93;;
20411;SDS011;10365;52.578;8.138;2023-10-19T07:55:04;22.00;;;13.90;;
20411;SDS011;10365;52.578;8.138;2023-10-19T07:57:29;21.73;;;13.23;;
20411;SDS011;10365;52.578;8.138;2023-10-19T07:59:55;20.17;;;13.27;;
20411;SDS011;10365;52.578;8.138;2023-10-19T08:02:21;17.48;;;12.18;;
20411;SDS011;10365;52.578;8.138;2023-10-19T08:04:49;18.88;;;11.80;;
20411;SDS011;10365;52.578;8.138;2023-10-19T08:07:15;18.50;;;11.43;;
20411;SDS011;10365;52.578;8.138;2023-10-19T08:09:42;18.83;;;11.70;;
20411;SDS011;10365;52.578;8.138;2023-10-19T08:12:07;20.88;;;11.90;;
20411;SDS011;10365;52.578;8.138;2023-10-19T08:14:34;24.55;;;11.60;;
20411;SDS011;10365;52.578;8.138;2023-10-19T08:16:59;19.15;;;9.73;;
20411;SDS011;10365;52.578;8.138;2023-10-19T08:19:27;26.83;;;10.32;;
20411;SDS011;10365;52.578;8.138;2023-10-19T08:21:52;18.60;;;9.43;;
20411;SDS011;10365;52.578;8.138;2023-10-19T08:24:19;15.85;;;8.88;;
20411;SDS011;10365;52.578;8.138;2023-10-19T08:26:46;14.07;;;8.57;;
20411;SDS011;10365;52.578;8.138;2023-10-19T08:29:11;13.65;;;9.45;;
20411;SDS011;10365;52.578;8.138;2023-10-19T08:31:41;20.30;;;9.85;;
20411;SDS011;10365;52.578;8.138;2023-10-19T08:34:07;27.50;;;9.80;;
20411;SDS011;10365;52.578;8.138;2023-10-19T08:36:35;15.02;;;9.60;;
20411;SDS011;10365;52.578;8.138;2023-10-19T08:39:00;15.40;;;10.57;;
20411;SDS011;10365;52.578;8.138;2023-10-19T08:41:31;15.20;;;10.60;;
20411;SDS011;10365;52.578;8.138;2023-10-19T08:43:56;18.42;;;10.68;;
20411;SDS011;10365;52.578;8.138;2023-10-19T08:46:22;20.33;;;10.57;;
20411;SDS011;10365;52.578;8.138;2023-10-19T08:48:50;18.30;;;11.35;;
20411;SDS011;10365;52.578;8.138;2023-10-19T08:51:15;14.48;;;10.70;;
20411;SDS011;10365;52.578;8.138;2023-10-19T08:53:42;17.58;;;10.98;;
20411;SDS011;10365;52.578;8.138;2023-10-19T08:56:09;15.57;;;11.63;;
20411;SDS011;10365;52.578;8.138;2023-10-19T08:58:37;19.05;;;11.95;;
20411;SDS011;10365;52.578;8.138;2023-10-19T09:01:02;19.50;;;11.63;;
20411;SDS011;10365;52.578;8.138;2023-10-19T09:03:35;21.88;;;12.18;;
20411;SDS011;10365;52.578;8.138;2023-10-19T09:06:01;14.07;;;10.57;;
20411;SDS011;10365;52.578;8.138;2023-10-19T09:08:27;18.10;;;12.30;;
20411;SDS011;10365;52.578;8.138;2023-10-19T09:11:09;20.65;;;10.88;;
20411;SDS011;10365;52.578;8.138;2023-10-19T09:13:50;16.05;;;12.30;;
20411;SDS011;10365;52.578;8.138;2023-10-19T09:16:16;19.23;;;11.43;;
20411;SDS011;10365;52.578;8.138;2023-10-19T09:18:42;22.23;;;11.20;;
20411;SDS011;10365;52.578;8.138;2023-10-19T09:21:07;24.15;;;11.75;;
20411;SDS011;10365;52.578;8.138;2023-10-19T09:23:37;26.13;;;12.65;;
20411;SDS011;10365;52.578;8.138;2023-10-19T09:26:02;24.58;;;12.65;;
20411;SDS011;10365;52.578;8.138;2023-10-19T09:28:28;23.95;;;12.77;;
20411;SDS011;10365;52.578;8.138;2023-10-19T09:30:54;20.98;;;12.77;;
20411;SDS011;10365;52.578;8.138;2023-10-19T09:33:20;18.65;;;13.25;;
20411;SDS011;10365;52.578;8.138;2023-10-19T09:35:47;17.58;;;12.68;;
20411;SDS011;10365;52.578;8.138;2023-10-19T09:38:16;19.08;;;13.25;;
20411;SDS011;10365;52.578;8.138;2023-10-19T09:40:47;24.60;;;13.55;;
20411;SDS011;10365;52.578;8.138;2023-10-19T09:43:15;34.22;;;14.15;;
20411;SDS011;10365;52.578;8.138;2023-10-19T09:45:41;33.20;;;14.00;;
20411;SDS011;10365;52.578;8.138;2023-10-19T09:48:07;22.98;;;14.40;;
20411;SDS011;10365;52.578;8.138;2023-10-19T09:50:34;27.48;;;14.48;;
20411;SDS011;10365;52.578;8.138;2023-10-19T09:53:00;22.85;;;15.02;;
20411;SDS011;10365;52.578;8.138;2023-10-19T09:55:29;23.05;;;13.75;;
20411;SDS011;10365;52.578;8.138;2023-10-19T10:00:33;21.90;;;14.52;;
20411;SDS011;10365;52.578;8.138;2023-10-19T10:02:59;24.38;;;14.05;;
20411;SDS011;10365;52.578;8.138;2023-10-19T10:10:43;19.88;;;14.57;;
20411;SDS011;10365;52.578;8.138;2023-10-19T10:15:51;24.33;;;13.75;;
20411;SDS011;10365;52.578;8.138;2023-10-19T10:18:17;20.17;;;13.45;;
20411;SDS011;10365;52.578;8.138;2023-10-19T10:20:43;20.08;;;13.63;;
20411;SDS011;10365;52.578;8.138;2023-10-19T10:23:18;28.83;;;13.82;;
20411;SDS011;10365;52.578;8.138;2023-10-19T10:25:46;25.60;;;14.27;;
20411;SDS011;10365;52.578;8.138;2023-10-19T10:28:14;23.60;;;13.95;;
20411;SDS011;10365;52.578;8.138;2023-10-19T10:33:44;17.55;;;12.75;;
20411;SDS011;10365;52.578;8.138;2023-10-19T10:36:13;17.45;;;12.85;;
20411;SDS011;10365;52.578;8.138;2023-10-19T10:38:39;19.77;;;13.57;;
20411;SDS011;10365;52.578;8.138;2023-10-19T10:41:05;18.45;;;12.23;;
20411;SDS011;10365;52.578;8.138;2023-10-19T10:43:46;19.58;;;12.35;;
20411;SDS011;10365;52.578;8.138;2023-10-19T10:46:12;16.30;;;12.27;;
20411;SDS011;10365;52.578;8.138;2023-10-19T10:48:41;18.40;;;12.30;;
20411;SDS011;10365;52.578;8.138;2023-10-19T10:51:16;14.65;;;11.68;;
20411;SDS011;10365;52.578;8.138;2023-10-19T10:53:42;19.45;;;12.30;;
20411;SDS011;10365;52.578;8.138;2023-10-19T10:56:07;18.00;;;11.80;;
20411;SDS011;10365;52.578;8.138;2023-10-19T10:58:32;17.33;;;11.82;;
20411;SDS011;10365;52.578;8.138;2023-10-19T11:00:58;18.98;;;11.60;;
20411;SDS011;10365;52.578;8.138;2023-10-19T11:03:23;19.23;;;11.98;;
20411;SDS011;10365;52.578;8.138;2023-10-19T11:05:51;20.00;;;12.55;;
20411;SDS011;10365;52.578;8.138;2023-10-19T11:08:16;14.95;;;12.30;;
20411;SDS011;10365;52.578;8.138;2023-10-19T11:10:43;20.73;;;12.27;;
20411;SDS011;10365;52.578;8.138;2023-10-19T11:13:10;16.50;;;12.30;;
20411;SDS011;10365;52.578;8.138;2023-10-19T11:15:36;17.77;;;12.82;;
20411;SDS011;10365;52.578;8.138;2023-10-19T11:18:05;15.65;;;12.73;;
20411;SDS011;10365;52.578;8.138;2023-10-19T11:20:32;19.73;;;13.30;;
20411;SDS011;10365;52.578;8.138;2023-10-19T11:22:57;27.65;;;12.57;;
20411;SDS011;10365;52.578;8.138;2023-10-19T11:25:26;19.95;;;13.45;;
20411;SDS011;10365;52.578;8.138;2023-10-19T11:27:56;19.20;;;13.80;;
20411;SDS011;10365;52.578;8.138;2023-10-19T11:30:28;24.23;;;14.38;;
20411;SDS011;10365;52.578;8.138;2023-10-19T11:32:55;17.20;;;13.35;;
20411;SDS011;10365;52.578;8.138;2023-10-19T11:35:30;19.48;;;13.85;;
20411;SDS011;10365;52.578;8.138;2023-10-19T11:38:12;18.08;;;13.38;;
20411;SDS011;10365;52.578;8.138;2023-10-19T11:40:38;19.48;;;13.40;;
20411;SDS011;10365;52.578;8.138;2023-10-19T11:43:03;20.77;;;13.60;;
20411;SDS011;10365;52.578;8.138;2023-10-19T11:45:29;18.65;;;13.32;;
20411;SDS011;10365;52.578;8.138;2023-10-19T11:47:54;20.63;;;13.43;;
20411;SDS011;10365;52.578;8.138;2023-10-19T11:50:21;19.17;;;13.45;;
20411;SDS011;10365;52.578;8.138;2023-10-19T11:52:47;16.90;;;12.18;;
20411;SDS011;10365;52.578;8.138;2023-10-19T11:55:12;20.48;;;13.02;;
20411;SDS011;10365;52.578;8.138;2023-10-19T11:57:42;17.67;;;12.13;;
20411;SDS011;10365;52.578;8.138;2023-10-19T12:00:09;18.20;;;12.25;;
20411;SDS011;10365;52.578;8.138;2023-10-19T12:02:38;15.27;;;11.52;;
20411;SDS011;10365;52.578;8.138;2023-10-19T12:05:06;16.45;;;12.18;;
20411;SDS011;10365;52.578;8.138;2023-10-19T12:07:35;15.23;;;11.93;;
20411;SDS011;10365;52.578;8.138;2023-10-19T12:10:01;18.48;;;12.75;;
20411;SDS011;10365;52.578;8.138;2023-10-19T12:12:28;14.55;;;11.73;;
20411;SDS011;10365;52.578;8.138;2023-10-19T12:14:53;15.82;;;12.00;;
20411;SDS011;10365;52.578;8.138;2023-10-19T12:17:20;15.50;;;11.10;;
20411;SDS011;10365;52.578;8.138;2023-10-19T12:19:47;13.88;;;10.98;;
20411;SDS011;10365;52.578;8.138;2023-10-19T12:22:12;14.77;;;11.10;;
20411;SDS011;10365;52.578;8.138;2023-10-19T12:24:38;15.52;;;10.60;;
20411;SDS011;10365;52.578;8.138;2023-10-19T12:27:04;18.58;;;10.80;;
20411;SDS011;10365;52.578;8.138;2023-10-19T12:29:29;14.80;;;10.80;;
20411;SDS011;10365;52.578;8.138;2023-10-19T12:31:57;17.05;;;11.48;;
20411;SDS011;10365;52.578;8.138;2023-10-19T12:34:22;13.73;;;10.80;;
20411;SDS011;10365;52.578;8.138;2023-10-19T12:36:47;17.45;;;11.07;;
20411;SDS011;10365;52.578;8.138;2023-10-19T12:39:15;16.65;;;11.73;;
20411;SDS011;10365;52.578;8.138;2023-10-19T12:41:59;17.20;;;12.32;;
20411;SDS011;10365;52.578;8.138;2023-10-19T12:44:26;18.85;;;12.05;;
20411;SDS011;10365;52.578;8.138;2023-10-19T12:46:53;19.88;;;12.50;;
20411;SDS011;10365;52.578;8.138;2023-10-19T12:49:19;18.23;;;12.07;;
20411;SDS011;10365;52.578;8.138;2023-10-19T12:51:51;16.02;;;12.05;;
20411;SDS011;10365;52.578;8.138;2023-10-19T12:54:17;19.38;;;13.55;;
20411;SDS011;10365;52.578;8.138;2023-10-19T12:56:43;21.45;;;13.20;;
20411;SDS011;10365;52.578;8.138;2023-10-19T12:59:08;19.30;;;13.65;;
20411;SDS011;10365;52.578;8.138;2023-10-19T13:01:34;18.55;;;14.45;;
20411;SDS011;10365;52.578;8.138;2023-10-19T13:04:00;28.33;;;14.90;;
20411;SDS011;10365;52.578;8.138;2023-10-19T13:06:26;23.40;;;14.73;;
20411;SDS011;10365;52.578;8.138;2023-10-19T13:08:54;21.83;;;15.43;;
20411;SDS011;10365;52.578;8.138;2023-10-19T13:11:19;26.13;;;16.10;;
20411;SDS011;10365;52.578;8.138;2023-10-19T13:13:45;20.98;;;15.38;;
20411;SDS011;10365;52.578;8.138;2023-10-19T13:16:10;21.45;;;16.08;;
20411;SDS011;10365;52.578;8.138;2023-10-19T13:18:36;24.02;;;16.65;;
20411;SDS011;10365;52.578;8.138;2023-10-19T13:21:01;24.45;;;17.27;;
20411;SDS011;10365;52.578;8.138;2023-10-19T13:23:30;24.13;;;17.52;;
20411;SDS011;10365;52.578;8.138;2023-10-19T13:25:58;24.88;;;16.42;;
20411;SDS011;10365;52.578;8.138;2023-10-19T13:28:33;26.25;;;18.33;;
20411;SDS011;10365;52.578;8.138;2023-10-19T13:31:00;31.33;;;19.20;;
20411;SDS011;10365;52.578;8.138;2023-10-19T13:33:25;27.80;;;18.90;;
20411;SDS011;10365;52.578;8.138;2023-10-19T13:35:51;28.50;;;19.27;;
20411;SDS011;10365;52.578;8.138;2023-10-19T13:38:17;32.90;;;20.17;;
20411;SDS011;10365;52.578;8.138;2023-10-19T13:40:43;33.88;;;19.98;;
20411;SDS011;10365;52.578;8.138;2023-10-19T13:43:09;32.97;;;19.95;;
20411;SDS011;10365;52.578;8.138;2023-10-19T13:45:39;31.00;;;19.92;;
20411;SDS011;10365;52.578;8.138;2023-10-19T13:48:04;29.08;;;20.40;;
20411;SDS011;10365;52.578;8.138;2023-10-19T13:50:30;35.28;;;20.60;;
20411;SDS011;10365;52.578;8.138;2023-10-19T13:52:55;32.50;;;21.38;;
20411;SDS011;10365;52.578;8.138;2023-10-19T13:55:28;31.42;;;21.58;;
20411;SDS011;10365;52.578;8.138;2023-10-19T13:57:54;33.17;;;22.55;;
20411;SDS011;10365;52.578;8.138;2023-10-19T14:00:21;33.55;;;22.70;;
20411;SDS011;10365;52.578;8.138;2023-10-19T14:02:55;37.08;;;22.77;;
20411;SDS011;10365;52.578;8.138;2023-10-19T14:05:21;33.53;;;22.00;;
20411;SDS011;10365;52.578;8.138;2023-10-19T14:07:49;33.08;;;22.42;;
20411;SDS011;10365;52.578;8.138;2023-10-19T14:10:15;33.53;;;23.02;;
20411;SDS011;10365;52.578;8.138;2023-10-19T14:12:41;34.78;;;22.85;;
20411;SDS011;10365;52.578;8.138;2023-10-19T14:15:12;35.65;;;23.00;;
20411;SDS011;10365;52.578;8.138;2023-10-19T14:17:38;31.67;;;22.10;;
20411;SDS011;10365;52.578;8.138;2023-10-19T14:20:03;36.30;;;22.02;;
20411;SDS011;10365;52.578;8.138;2023-10-19T14:22:30;33.38;;;21.92;;
20411;SDS011;10365;52.578;8.138;2023-10-19T14:24:59;32.45;;;20.95;;
20411;SDS011;10365;52.578;8.138;2023-10-19T14:27:24;31.15;;;20.55;;
20411;SDS011;10365;52.578;8.138;2023-10-19T14:29:50;30.17;;;19.17;;
20411;SDS011;10365;52.578;8.138;2023-10-19T14:32:15;31.20;;;20.50;;
20411;SDS011;10365;52.578;8.138;2023-10-19T14:34:41;32.72;;;20.02;;